createdAt,value
2018-05-21T00:00:54.643Z,0
2018-05-21T00:01:54.648Z,0
2018-05-21T00:02:54.608Z,0
2018-05-21T00:03:54.899Z,0
2018-05-21T00:04:54.847Z,0
2018-05-21T00:05:54.563Z,0
2018-05-21T00:06:54.562Z,0
2018-05-21T00:07:54.562Z,0
2018-05-21T00:08:54.263Z,0
2018-05-21T00:09:54.788Z,0
2018-05-21T00:10:54.523Z,0
2018-05-21T00:11:54.803Z,0
2018-05-21T00:12:54.747Z,0
2018-05-21T00:13:54.467Z,0
2018-05-21T00:14:54.188Z,0
2018-05-21T00:15:54.480Z,0
2018-05-21T00:16:54.629Z,0
2018-05-21T00:17:54.147Z,0
2018-05-21T00:18:54.408Z,0
2018-05-21T00:19:54.652Z,0
2018-05-21T00:20:54.382Z,0
2018-05-21T00:21:54.564Z,0
2018-05-21T00:22:54.358Z,0
2018-05-21T00:23:54.597Z,0
2018-05-21T00:24:54.589Z,0
2018-05-21T00:25:54.583Z,0
2018-05-21T00:26:54.599Z,0
2018-05-21T00:27:54.286Z,0
2018-05-21T00:28:54.454Z,0
2018-05-21T00:29:54.004Z,0
2018-05-21T00:30:54.251Z,0
2018-05-21T00:31:53.971Z,0
2018-05-21T00:32:54.214Z,0
2018-05-21T00:33:54.267Z,0
2018-05-21T00:34:54.200Z,0
2018-05-21T00:35:54.188Z,0
2018-05-21T00:36:54.166Z,0
2018-05-21T00:37:53.621Z,0
2018-05-21T00:38:54.454Z,0
2018-05-21T00:39:54.130Z,0
2018-05-21T00:40:54.388Z,0
2018-05-21T00:41:54.107Z,0
2018-05-21T00:42:54.086Z,0
2018-05-21T00:43:54.089Z,0
2018-05-21T00:44:54.332Z,0
2018-05-21T00:45:54.047Z,0
2018-05-21T00:46:54.304Z,0
2018-05-21T00:47:53.752Z,0
2018-05-21T00:48:54.287Z,0
2018-05-21T00:49:54.258Z,0
2018-05-21T00:50:53.978Z,0
2018-05-21T00:51:53.714Z,0
2018-05-21T00:52:53.951Z,0
2018-05-21T00:53:53.943Z,0
2018-05-21T00:54:54.195Z,0
2018-05-21T00:55:53.652Z,0
2018-05-21T00:56:53.643Z,0
2018-05-21T00:57:53.364Z,0
2018-05-21T00:58:53.614Z,0
2018-05-21T00:59:54.224Z,0
2018-05-21T01:00:53.581Z,0
2018-05-21T01:01:54.108Z,0
2018-05-21T01:02:53.571Z,0
2018-05-21T01:03:53.545Z,0
2018-05-21T01:04:53.277Z,0
2018-05-21T01:05:54.077Z,0
2018-05-21T01:06:54.037Z,0
2018-05-21T01:07:53.227Z,0
2018-05-21T01:08:53.752Z,0
2018-05-21T01:09:53.729Z,0
2018-05-21T01:10:53.453Z,0
2018-05-21T01:11:53.725Z,0
2018-05-21T01:12:53.441Z,0
2018-05-21T01:13:53.683Z,0
2018-05-21T01:14:53.674Z,0
2018-05-21T01:15:53.811Z,0
2018-05-21T01:16:53.379Z,0
2018-05-21T01:17:53.633Z,0
2018-05-21T01:18:53.616Z,0
2018-05-21T01:19:53.336Z,0
2018-05-21T01:20:53.585Z,0
2018-05-21T01:21:53.838Z,0
2018-05-21T01:22:53.300Z,0
2018-05-21T01:23:53.013Z,0
2018-05-21T01:24:53.320Z,0
2018-05-21T01:25:53.251Z,0
2018-05-21T01:26:53.767Z,0
2018-05-21T01:27:53.505Z,0
2018-05-21T01:28:53.481Z,0
2018-05-21T01:29:53.728Z,0
2018-05-21T01:30:53.451Z,0
2018-05-21T01:31:53.437Z,0
2018-05-21T01:32:53.159Z,0
2018-05-21T01:33:53.144Z,0
2018-05-21T01:34:53.660Z,0
2018-05-21T01:35:53.649Z,0
2018-05-21T01:36:53.099Z,0
2018-05-21T01:37:53.353Z,0
2018-05-21T01:38:53.613Z,0
2018-05-21T01:39:53.597Z,0
2018-05-21T01:40:53.316Z,0
2018-05-21T01:41:53.309Z,0
2018-05-21T01:42:53.024Z,0
2018-05-21T01:43:52.745Z,0
2018-05-21T01:44:52.996Z,0
2018-05-21T01:45:52.987Z,0
2018-05-21T01:46:53.256Z,0
2018-05-21T01:47:52.962Z,0
2018-05-21T01:48:53.207Z,0
2018-05-21T01:49:52.938Z,0
2018-05-21T01:50:52.924Z,0
2018-05-21T01:51:53.176Z,0
2018-05-21T01:52:52.885Z,0
2018-05-21T01:53:53.417Z,0
2018-05-21T01:54:53.395Z,0
2018-05-21T01:55:53.175Z,0
2018-05-21T01:56:52.834Z,0
2018-05-21T01:57:52.826Z,0
2018-05-21T01:58:53.080Z,0
2018-05-21T01:59:52.537Z,0
2018-05-21T02:00:52.786Z,0
2018-05-21T02:01:53.129Z,0
2018-05-21T02:02:52.750Z,0
2018-05-21T02:03:52.467Z,0
2018-05-21T02:04:52.992Z,0
2018-05-21T02:05:52.993Z,0
2018-05-21T02:06:52.694Z,0
2018-05-21T02:07:52.972Z,0
2018-05-21T02:08:52.667Z,0
2018-05-21T02:09:53.186Z,0
2018-05-21T02:10:53.246Z,0
2018-05-21T02:11:52.904Z,0
2018-05-21T02:12:52.624Z,0
2018-05-21T02:13:52.600Z,0
2018-05-21T02:14:52.848Z,0
2018-05-21T02:15:52.837Z,0
2018-05-21T02:16:53.092Z,0
2018-05-21T02:17:52.544Z,0
2018-05-21T02:18:52.812Z,0
2018-05-21T02:19:52.787Z,0
2018-05-21T02:20:53.034Z,0
2018-05-21T02:21:52.966Z,0
2018-05-21T02:22:52.741Z,0
2018-05-21T02:23:52.460Z,0
2018-05-21T02:24:52.450Z,0
2018-05-21T02:25:52.713Z,0
2018-05-21T02:26:52.446Z,0
2018-05-21T02:27:52.408Z,0
2018-05-21T02:28:52.658Z,0
2018-05-21T02:29:52.383Z,0
2018-05-21T02:30:52.372Z,0
2018-05-21T02:31:52.627Z,0
2018-05-21T02:32:52.616Z,0
2018-05-21T02:33:52.611Z,0
2018-05-21T02:34:52.834Z,0
2018-05-21T02:35:52.567Z,0
2018-05-21T02:36:52.289Z,0
2018-05-21T02:37:52.813Z,0
2018-05-21T02:38:51.992Z,0
2018-05-21T02:39:52.516Z,0
2018-05-21T02:40:52.226Z,0
2018-05-21T02:41:52.751Z,0
2018-05-21T02:42:52.756Z,0
2018-05-21T02:43:52.461Z,0
2018-05-21T02:44:52.445Z,0
2018-05-21T02:45:52.733Z,0
2018-05-21T02:46:52.401Z,0
2018-05-21T02:47:52.389Z,0
2018-05-21T02:48:52.639Z,0
2018-05-21T02:49:52.152Z,0
2018-05-21T02:50:52.341Z,0
2018-05-21T02:51:52.076Z,0
2018-05-21T02:52:52.319Z,0
2018-05-21T02:53:52.312Z,0
2018-05-21T02:54:52.293Z,0
2018-05-21T02:55:52.544Z,0
2018-05-21T02:56:52.267Z,4
2018-05-21T02:57:52.250Z,4
2018-05-21T02:58:52.523Z,4
2018-05-21T02:59:52.227Z,0
2018-05-21T03:00:51.680Z,4
2018-05-21T03:01:52.244Z,4
2018-05-21T03:02:51.912Z,8
2018-05-21T03:03:51.898Z,4
2018-05-21T03:04:52.157Z,8
2018-05-21T03:05:52.139Z,4
2018-05-21T03:06:52.123Z,8
2018-05-21T03:07:52.102Z,8
2018-05-21T03:08:51.848Z,12
2018-05-21T03:09:52.085Z,12
2018-05-21T03:10:52.332Z,16
2018-05-21T03:11:52.059Z,16
2018-05-21T03:12:52.307Z,20
2018-05-21T03:13:51.805Z,20
2018-05-21T03:14:52.279Z,24
2018-05-21T03:15:51.732Z,24
2018-05-21T03:16:52.257Z,32
2018-05-21T03:17:51.700Z,36
2018-05-21T03:18:51.956Z,36
2018-05-21T03:19:52.204Z,44
2018-05-21T03:20:51.661Z,44
2018-05-21T03:21:52.227Z,56
2018-05-21T03:22:51.361Z,56
2018-05-21T03:23:51.880Z,64
2018-05-21T03:24:51.868Z,72
2018-05-21T03:25:51.863Z,80
2018-05-21T03:26:51.835Z,88
2018-05-21T03:27:52.088Z,96
2018-05-21T03:28:51.811Z,104
2018-05-21T03:29:51.531Z,116
2018-05-21T03:30:51.517Z,124
2018-05-21T03:31:51.781Z,132
2018-05-21T03:32:52.019Z,144
2018-05-21T03:33:51.998Z,156
2018-05-21T03:34:51.456Z,168
2018-05-21T03:35:51.707Z,180
2018-05-21T03:36:51.747Z,192
2018-05-21T03:37:51.411Z,204
2018-05-21T03:38:51.938Z,220
2018-05-21T03:39:51.388Z,232
2018-05-21T03:40:51.113Z,248
2018-05-21T03:41:51.627Z,260
2018-05-21T03:42:51.875Z,276
2018-05-21T03:43:51.860Z,292
2018-05-21T03:44:51.321Z,304
2018-05-21T03:45:51.303Z,320
2018-05-21T03:46:51.547Z,340
2018-05-21T03:47:51.542Z,352
2018-05-21T03:48:51.257Z,372
2018-05-21T03:49:51.240Z,384
2018-05-21T03:50:51.226Z,400
2018-05-21T03:51:50.946Z,416
2018-05-21T03:52:51.473Z,436
2018-05-21T03:53:51.453Z,452
2018-05-21T03:54:51.170Z,468
2018-05-21T03:55:51.419Z,488
2018-05-21T03:56:51.424Z,504
2018-05-21T03:57:51.412Z,524
2018-05-21T03:58:51.119Z,540
2018-05-21T03:59:51.107Z,560
2018-05-21T04:00:51.354Z,576
2018-05-21T04:01:50.815Z,592
2018-05-21T04:02:51.583Z,612
2018-05-21T04:03:51.309Z,628
2018-05-21T04:04:51.294Z,644
2018-05-21T04:05:51.016Z,664
2018-05-21T04:06:51.533Z,680
2018-05-21T04:07:51.297Z,696
2018-05-21T04:08:51.234Z,712
2018-05-21T04:09:50.954Z,732
2018-05-21T04:10:50.946Z,744
2018-05-21T04:11:51.669Z,760
2018-05-21T04:12:51.515Z,780
2018-05-21T04:13:51.433Z,792
2018-05-21T04:14:50.898Z,808
2018-05-21T04:15:51.215Z,824
2018-05-21T04:16:51.386Z,840
2018-05-21T04:17:51.194Z,852
2018-05-21T04:18:51.297Z,872
2018-05-21T04:19:51.359Z,888
2018-05-21T04:20:51.064Z,904
2018-05-21T04:21:51.513Z,916
2018-05-21T04:22:50.765Z,928
2018-05-21T04:23:51.018Z,948
2018-05-21T04:24:51.281Z,956
2018-05-21T04:25:50.728Z,972
2018-05-21T04:26:50.712Z,988
2018-05-21T04:27:51.229Z,1004
2018-05-21T04:28:50.465Z,1016
2018-05-21T04:29:50.401Z,1028
2018-05-21T04:30:50.679Z,1040
2018-05-21T04:31:50.691Z,1056
2018-05-21T04:32:50.648Z,1068
2018-05-21T04:33:51.146Z,1080
2018-05-21T04:34:51.131Z,1092
2018-05-21T04:35:50.921Z,1104
2018-05-21T04:36:50.315Z,1116
2018-05-21T04:37:50.557Z,1132
2018-05-21T04:38:50.831Z,1144
2018-05-21T04:39:51.056Z,1156
2018-05-21T04:40:50.786Z,1164
2018-05-21T04:41:50.766Z,1176
2018-05-21T04:42:50.532Z,1184
2018-05-21T04:43:50.992Z,1196
2018-05-21T04:44:50.719Z,1208
2018-05-21T04:45:50.963Z,1220
2018-05-21T04:46:50.690Z,1228
2018-05-21T04:47:50.678Z,1240
2018-05-21T04:48:50.415Z,1256
2018-05-21T04:49:50.645Z,1260
2018-05-21T04:50:50.626Z,1276
2018-05-21T04:51:50.094Z,1284
2018-05-21T04:52:50.603Z,1296
2018-05-21T04:53:50.857Z,1308
2018-05-21T04:54:50.575Z,1316
2018-05-21T04:55:50.306Z,1328
2018-05-21T04:56:50.562Z,1340
2018-05-21T04:57:50.543Z,1348
2018-05-21T04:58:50.541Z,1364
2018-05-21T04:59:50.771Z,1372
2018-05-21T05:00:50.228Z,1384
2018-05-21T05:01:50.222Z,1392
2018-05-21T05:02:50.461Z,1404
2018-05-21T05:03:50.713Z,1412
2018-05-21T05:04:50.177Z,1420
2018-05-21T05:05:50.423Z,1428
2018-05-21T05:06:50.678Z,1440
2018-05-21T05:07:50.402Z,1448
2018-05-21T05:08:50.115Z,1452
2018-05-21T05:09:50.636Z,1464
2018-05-21T05:10:50.627Z,1472
2018-05-21T05:11:50.335Z,1480
2018-05-21T05:12:50.072Z,1488
2018-05-21T05:13:50.323Z,1496
2018-05-21T05:14:50.032Z,1500
2018-05-21T05:15:50.286Z,1512
2018-05-21T05:16:50.275Z,1516
2018-05-21T05:17:50.254Z,1528
2018-05-21T05:18:49.981Z,1536
2018-05-21T05:19:50.497Z,1544
2018-05-21T05:20:50.221Z,1552
2018-05-21T05:21:50.207Z,1568
2018-05-21T05:22:49.919Z,1572
2018-05-21T05:23:50.182Z,1580
2018-05-21T05:24:49.907Z,1588
2018-05-21T05:25:50.153Z,1600
2018-05-21T05:26:50.543Z,1604
2018-05-21T05:27:49.860Z,1608
2018-05-21T05:28:49.585Z,1624
2018-05-21T05:29:50.098Z,1620
2018-05-21T05:30:50.362Z,1628
2018-05-21T05:31:50.070Z,1636
2018-05-21T05:32:50.099Z,1644
2018-05-21T05:33:50.303Z,1652
2018-05-21T05:34:50.024Z,1660
2018-05-21T05:35:49.902Z,1664
2018-05-21T05:36:50.265Z,1668
2018-05-21T05:37:49.724Z,1664
2018-05-21T05:38:50.249Z,1680
2018-05-21T05:39:50.226Z,1692
2018-05-21T05:40:49.943Z,1696
2018-05-21T05:41:49.947Z,1704
2018-05-21T05:42:50.186Z,1708
2018-05-21T05:43:50.191Z,1716
2018-05-21T05:44:49.893Z,1716
2018-05-21T05:45:50.160Z,1724
2018-05-21T05:46:49.865Z,1728
2018-05-21T05:47:49.856Z,1736
2018-05-21T05:48:50.081Z,1740
2018-05-21T05:49:50.099Z,1744
2018-05-21T05:50:50.086Z,1760
2018-05-21T05:51:50.068Z,1760
2018-05-21T05:52:49.524Z,1768
2018-05-21T05:53:49.780Z,1776
2018-05-21T05:54:49.770Z,1784
2018-05-21T05:55:49.746Z,1792
2018-05-21T05:56:49.482Z,1804
2018-05-21T05:57:49.718Z,1816
2018-05-21T05:58:49.451Z,1820
2018-05-21T05:59:49.701Z,1836
2018-05-21T06:00:49.417Z,1836
2018-05-21T06:01:49.670Z,1844
2018-05-21T06:02:49.404Z,1852
2018-05-21T06:03:49.655Z,1860
2018-05-21T06:04:49.362Z,1872
2018-05-21T06:05:49.632Z,1880
2018-05-21T06:06:49.606Z,1888
2018-05-21T06:07:49.329Z,1900
2018-05-21T06:08:49.586Z,1912
2018-05-21T06:09:49.569Z,1920
2018-05-21T06:10:49.291Z,1928
2018-05-21T06:11:49.537Z,1940
2018-05-21T06:12:49.796Z,1944
2018-05-21T06:13:49.801Z,1956
2018-05-21T06:14:49.498Z,1964
2018-05-21T06:15:49.493Z,1968
2018-05-21T06:16:49.478Z,1976
2018-05-21T06:17:49.220Z,1988
2018-05-21T06:18:49.722Z,1992
2018-05-21T06:19:49.446Z,2000
2018-05-21T06:20:49.168Z,2008
2018-05-21T06:21:49.627Z,2012
2018-05-21T06:22:48.876Z,2024
2018-05-21T06:23:49.673Z,2032
2018-05-21T06:24:49.662Z,2044
2018-05-21T06:25:49.461Z,2048
2018-05-21T06:26:49.098Z,2072
2018-05-21T06:27:49.562Z,2056
2018-05-21T06:28:49.612Z,2072
2018-05-21T06:29:49.064Z,1976
2018-05-21T06:30:49.309Z,2096
2018-05-21T06:31:49.044Z,2104
2018-05-21T06:32:49.020Z,2124
2018-05-21T06:33:49.090Z,2132
2018-05-21T06:34:49.526Z,2140
2018-05-21T06:35:49.252Z,2152
2018-05-21T06:36:48.971Z,2168
2018-05-21T06:37:48.696Z,2180
2018-05-21T06:38:49.209Z,2180
2018-05-21T06:39:49.219Z,2196
2018-05-21T06:40:48.655Z,2220
2018-05-21T06:41:49.466Z,2228
2018-05-21T06:42:48.900Z,2244
2018-05-21T06:43:49.428Z,2268
2018-05-21T06:44:49.145Z,2272
2018-05-21T06:45:49.131Z,2292
2018-05-21T06:46:49.122Z,2288
2018-05-21T06:47:49.023Z,2300
2018-05-21T06:48:48.831Z,2312
2018-05-21T06:49:49.029Z,2328
2018-05-21T06:50:49.349Z,2348
2018-05-21T06:51:48.805Z,2348
2018-05-21T06:52:48.792Z,2364
2018-05-21T06:53:48.512Z,2388
2018-05-21T06:54:49.025Z,2396
2018-05-21T06:55:49.286Z,2428
2018-05-21T06:56:49.028Z,2440
2018-05-21T06:57:49.269Z,2448
2018-05-21T06:58:49.283Z,2284
2018-05-21T06:59:49.324Z,2468
2018-05-21T07:00:48.701Z,2484
2018-05-21T07:01:49.213Z,2492
2018-05-21T07:02:48.939Z,2504
2018-05-21T07:03:48.935Z,2524
2018-05-21T07:04:48.653Z,2548
2018-05-21T07:05:48.839Z,2564
2018-05-21T07:06:48.632Z,2580
2018-05-21T07:07:49.148Z,2584
2018-05-21T07:08:48.872Z,2604
2018-05-21T07:09:48.864Z,2608
2018-05-21T07:10:49.113Z,2620
2018-05-21T07:11:48.837Z,2652
2018-05-21T07:12:48.554Z,2640
2018-05-21T07:13:48.821Z,2664
2018-05-21T07:14:49.094Z,2696
2018-05-21T07:15:48.831Z,2720
2018-05-21T07:16:48.797Z,2724
2018-05-21T07:17:49.050Z,2752
2018-05-21T07:18:48.768Z,2780
2018-05-21T07:19:48.754Z,2792
2018-05-21T07:20:49.007Z,2812
2018-05-21T07:21:48.463Z,2832
2018-05-21T07:22:48.980Z,2888
2018-05-21T07:23:48.699Z,2904
2018-05-21T07:24:48.717Z,3236
2018-05-21T07:25:48.424Z,16640
2018-05-21T07:26:48.672Z,32096
2018-05-21T07:27:48.933Z,34496
2018-05-21T07:28:48.658Z,36704
2018-05-21T07:29:48.118Z,39904
2018-05-21T07:30:48.369Z,42016
2018-05-21T07:31:48.366Z,40576
2018-05-21T07:32:48.360Z,37248
2018-05-21T07:33:48.620Z,35712
2018-05-21T07:34:48.606Z,37120
2018-05-21T07:35:48.613Z,39744
2018-05-21T07:36:48.324Z,42048
2018-05-21T07:37:48.582Z,44576
2018-05-21T07:38:48.724Z,46560
2018-05-21T07:39:48.571Z,44960
2018-05-21T07:40:48.848Z,40608
2018-05-21T07:41:48.074Z,38368
2018-05-21T07:42:48.556Z,40192
2018-05-21T07:43:48.552Z,43744
2018-05-21T07:44:48.334Z,47488
2018-05-21T07:45:48.544Z,49536
2018-05-21T07:46:48.278Z,51392
2018-05-21T07:47:48.810Z,51808
2018-05-21T07:48:48.548Z,49120
2018-05-21T07:49:48.269Z,44608
2018-05-21T07:50:48.454Z,41664
2018-05-21T07:51:48.717Z,41632
2018-05-21T07:52:47.999Z,42304
2018-05-21T07:53:48.795Z,41984
2018-05-21T07:54:48.533Z,41568
2018-05-21T07:55:48.517Z,42176
2018-05-21T07:56:48.262Z,43680
2018-05-21T07:57:48.512Z,44416
2018-05-21T07:58:47.988Z,44000
2018-05-21T07:59:48.246Z,45600
2018-05-21T08:00:48.777Z,48416
2018-05-21T08:01:48.517Z,50432
2018-05-21T08:02:48.517Z,48896
2018-05-21T08:03:48.255Z,46112
2018-05-21T08:04:48.782Z,44032
2018-05-21T08:05:48.249Z,44000
2018-05-21T08:06:47.981Z,44672
2018-05-21T08:07:48.782Z,45632
2018-05-21T08:08:48.514Z,47392
2018-05-21T08:09:48.257Z,50656
2018-05-21T08:10:48.777Z,53344
2018-05-21T08:11:47.985Z,53248
2018-05-21T08:12:48.249Z,51712
2018-05-21T08:13:48.249Z,51008
2018-05-21T08:14:48.910Z,52032
2018-05-21T08:15:48.250Z,53376
2018-05-21T08:16:48.522Z,49792
2018-05-21T08:17:48.518Z,44832
2018-05-21T08:18:47.983Z,42464
2018-05-21T08:19:48.262Z,43584
2018-05-21T08:20:48.253Z,46368
2018-05-21T08:21:48.530Z,49536
2018-05-21T08:22:48.522Z,52224
2018-05-21T08:23:48.258Z,53856
2018-05-21T08:24:48.795Z,52960
2018-05-21T08:25:48.315Z,51264
2018-05-21T08:26:48.814Z,48480
2018-05-21T08:27:48.537Z,47584
2018-05-21T08:28:48.799Z,49376
2018-05-21T08:29:48.570Z,44576
2018-05-21T08:30:48.320Z,37440
2018-05-21T08:31:48.273Z,59520
2018-05-21T08:32:48.282Z,10120
2018-05-21T08:33:48.806Z,10716
2018-05-21T08:34:48.551Z,19456
2018-05-21T08:35:48.541Z,10364
2018-05-21T08:36:48.821Z,33536
2018-05-21T08:37:48.285Z,7004
2018-05-21T08:38:48.569Z,20800
2018-05-21T08:39:48.821Z,26656
2018-05-21T08:40:48.808Z,10592
2018-05-21T08:41:48.289Z,10196
2018-05-21T08:42:49.110Z,7032
2018-05-21T08:43:48.561Z,6004
2018-05-21T08:44:48.024Z,2148
2018-05-21T08:45:48.817Z,8488
2018-05-21T08:46:48.278Z,12816
2018-05-21T08:47:48.551Z,14840
2018-05-21T08:48:48.067Z,40608
2018-05-21T08:49:48.544Z,9772
2018-05-21T08:50:48.278Z,15808
2018-05-21T08:51:48.540Z,14384
2018-05-21T08:52:48.274Z,10604
2018-05-21T08:53:48.005Z,8136
2018-05-21T08:54:48.531Z,0
2018-05-21T08:55:48.528Z,6012
2018-05-21T08:56:48.464Z,4416
2018-05-21T08:57:48.796Z,7180
2018-05-21T08:58:48.684Z,6512
2018-05-21T08:59:48.258Z,6048
2018-05-21T09:00:48.260Z,5728
2018-05-21T09:01:48.504Z,4428
2018-05-21T09:02:48.503Z,1812
2018-05-21T09:03:48.789Z,6504
2018-05-21T09:04:48.605Z,4460
2018-05-21T09:05:48.492Z,7256
2018-05-21T09:06:48.224Z,6340
2018-05-21T09:07:47.953Z,3076
2018-05-21T09:08:48.484Z,6196
2018-05-21T09:09:48.739Z,10240
2018-05-21T09:10:48.749Z,7836
2018-05-21T09:11:48.468Z,9588
2018-05-21T09:12:48.196Z,7404
2018-05-21T09:13:47.933Z,6132
2018-05-21T09:14:48.189Z,5832
2018-05-21T09:15:48.457Z,10792
2018-05-21T09:16:48.187Z,15044
2018-05-21T09:17:48.167Z,10880
2018-05-21T09:18:48.179Z,7132
2018-05-21T09:19:48.427Z,5296
2018-05-21T09:20:48.423Z,6008
2018-05-21T09:21:48.676Z,4900
2018-05-21T09:22:48.736Z,4956
2018-05-21T09:23:48.143Z,5160
2018-05-21T09:24:48.423Z,5076
2018-05-21T09:25:48.662Z,24160
2018-05-21T09:26:48.125Z,5544
2018-05-21T09:27:48.656Z,7468
2018-05-21T09:28:48.653Z,17216
2018-05-21T09:29:48.386Z,6392
2018-05-21T09:30:48.447Z,5552
2018-05-21T09:31:48.646Z,5876
2018-05-21T09:32:48.086Z,12416
2018-05-21T09:33:48.622Z,7012
2018-05-21T09:34:48.120Z,5024
2018-05-21T09:35:48.403Z,5272
2018-05-21T09:36:48.344Z,7024
2018-05-21T09:37:48.339Z,9640
2018-05-21T09:38:48.326Z,5248
2018-05-21T09:39:48.054Z,6372
2018-05-21T09:40:48.308Z,5240
2018-05-21T09:41:48.298Z,6204
2018-05-21T09:42:48.572Z,6384
2018-05-21T09:43:48.033Z,5324
2018-05-21T09:44:48.300Z,8704
2018-05-21T09:45:48.015Z,5428
2018-05-21T09:46:48.275Z,13540
2018-05-21T09:47:48.563Z,4936
2018-05-21T09:48:48.163Z,5236
2018-05-21T09:49:48.254Z,5000
2018-05-21T09:50:47.982Z,5048
2018-05-21T09:51:48.516Z,10392
2018-05-21T09:52:47.711Z,6660
2018-05-21T09:53:48.523Z,6072
2018-05-21T09:54:47.963Z,10948
2018-05-21T09:55:48.267Z,19712
2018-05-21T09:56:48.214Z,21856
2018-05-21T09:57:48.487Z,10100
2018-05-21T09:58:48.203Z,20224
2018-05-21T09:59:47.928Z,33360
2018-05-21T10:00:48.198Z,15196
2018-05-21T10:01:48.467Z,5480
2018-05-21T10:02:47.909Z,11708
2018-05-21T10:03:48.222Z,5544
2018-05-21T10:04:48.499Z,2876
2018-05-21T10:05:47.984Z,5612
2018-05-21T10:06:47.902Z,5320
2018-05-21T10:07:48.443Z,6620
2018-05-21T10:08:48.156Z,5464
2018-05-21T10:09:48.206Z,5420
2018-05-21T10:10:48.092Z,5936
2018-05-21T10:11:48.175Z,5896
2018-05-21T10:12:48.382Z,32928
2018-05-21T10:13:47.651Z,6612
2018-05-21T10:14:48.170Z,12016
2018-05-21T10:15:48.433Z,11944
2018-05-21T10:16:47.832Z,13040
2018-05-21T10:17:48.380Z,2208
2018-05-21T10:18:47.825Z,20064
2018-05-21T10:19:47.849Z,18144
2018-05-21T10:20:47.819Z,12952
2018-05-21T10:21:48.092Z,28448
2018-05-21T10:22:48.088Z,17344
2018-05-21T10:23:48.108Z,32224
2018-05-21T10:24:48.068Z,33120
2018-05-21T10:25:48.364Z,46304
2018-05-21T10:26:48.059Z,7996
2018-05-21T10:27:48.082Z,11520
2018-05-21T10:28:48.340Z,90752
2018-05-21T10:29:48.029Z,99648
2018-05-21T10:30:47.509Z,5856
2018-05-21T10:31:48.492Z,94112
2018-05-21T10:32:48.025Z,94336
2018-05-21T10:33:48.023Z,77728
2018-05-21T10:34:47.818Z,92032
2018-05-21T10:35:48.102Z,89760
2018-05-21T10:36:47.503Z,89472
2018-05-21T10:37:48.292Z,89504
2018-05-21T10:38:47.755Z,90912
2018-05-21T10:39:48.024Z,93536
2018-05-21T10:40:47.517Z,97888
2018-05-21T10:41:47.768Z,102592
2018-05-21T10:42:47.750Z,106752
2018-05-21T10:43:47.897Z,109632
2018-05-21T10:44:48.031Z,108480
2018-05-21T10:45:47.494Z,103904
2018-05-21T10:46:48.035Z,94112
2018-05-21T10:47:48.291Z,83328
2018-05-21T10:48:48.051Z,74080
2018-05-21T10:49:47.787Z,70816
2018-05-21T10:50:47.934Z,72064
2018-05-21T10:51:48.113Z,79296
2018-05-21T10:52:48.057Z,86784
2018-05-21T10:53:47.808Z,95872
2018-05-21T10:54:48.064Z,101984
2018-05-21T10:55:47.531Z,105568
2018-05-21T10:56:48.099Z,105696
2018-05-21T10:57:48.057Z,100704
2018-05-21T10:58:48.353Z,93920
2018-05-21T10:59:47.564Z,85856
2018-05-21T11:00:48.148Z,78592
2018-05-21T11:01:48.299Z,76352
2018-05-21T11:02:48.113Z,79392
2018-05-21T11:03:47.579Z,86240
2018-05-21T11:04:48.263Z,95264
2018-05-21T11:05:47.855Z,102656
2018-05-21T11:06:48.472Z,106688
2018-05-21T11:07:47.950Z,108448
2018-05-21T11:08:48.135Z,104960
2018-05-21T11:09:48.142Z,100672
2018-05-21T11:10:48.159Z,96320
2018-05-21T11:11:47.888Z,91712
2018-05-21T11:12:47.895Z,88256
2018-05-21T11:13:48.163Z,85504
2018-05-21T11:14:48.443Z,83776
2018-05-21T11:15:48.177Z,84224
2018-05-21T11:16:48.185Z,85408
2018-05-21T11:17:48.051Z,87872
2018-05-21T11:18:47.663Z,90016
2018-05-21T11:19:48.463Z,92064
2018-05-21T11:20:48.468Z,93728
2018-05-21T11:21:48.478Z,92928
2018-05-21T11:22:48.229Z,94592
2018-05-21T11:23:48.234Z,93184
2018-05-21T11:24:47.979Z,92768
2018-05-21T11:25:48.239Z,92192
2018-05-21T11:26:48.261Z,92384
2018-05-21T11:27:47.989Z,89056
2018-05-21T11:28:47.731Z,85568
2018-05-21T11:29:48.000Z,82240
2018-05-21T11:30:48.268Z,78848
2018-05-21T11:31:48.312Z,74272
2018-05-21T11:32:48.297Z,73120
2018-05-21T11:33:48.619Z,74656
2018-05-21T11:34:48.035Z,79264
2018-05-21T11:35:48.311Z,84288
2018-05-21T11:36:48.050Z,90688
2018-05-21T11:37:48.324Z,98624
2018-05-21T11:38:48.336Z,104928
2018-05-21T11:39:48.342Z,108000
2018-05-21T11:40:48.349Z,109536
2018-05-21T11:41:48.622Z,106464
2018-05-21T11:42:48.091Z,99872
2018-05-21T11:43:48.373Z,90528
2018-05-21T11:44:48.110Z,85376
2018-05-21T11:45:48.119Z,80256
2018-05-21T11:46:48.441Z,79072
2018-05-21T11:47:48.403Z,79360
2018-05-21T11:48:48.135Z,81600
2018-05-21T11:49:47.883Z,86912
2018-05-21T11:50:48.721Z,90624
2018-05-21T11:51:48.419Z,92896
2018-05-21T11:52:47.896Z,93952
2018-05-21T11:53:48.178Z,98816
2018-05-21T11:54:48.454Z,100160
2018-05-21T11:55:48.195Z,99008
2018-05-21T11:56:48.194Z,98720
2018-05-21T11:57:48.201Z,97312
2018-05-21T11:58:48.740Z,99104
2018-05-21T11:59:48.212Z,99360
2018-05-21T12:00:48.499Z,97184
2018-05-21T12:01:48.789Z,95488
2018-05-21T12:02:48.482Z,94016
2018-05-21T12:03:48.560Z,91488
2018-05-21T12:04:48.789Z,89760
2018-05-21T12:05:48.613Z,87776
2018-05-21T12:06:48.269Z,89792
2018-05-21T12:07:49.222Z,92320
2018-05-21T12:08:48.281Z,94272
2018-05-21T12:09:48.554Z,94784
2018-05-21T12:10:48.591Z,94752
2018-05-21T12:11:48.849Z,94304
2018-05-21T12:12:48.867Z,94016
2018-05-21T12:13:48.332Z,92768
2018-05-21T12:14:48.598Z,92736
2018-05-21T12:15:48.344Z,91168
2018-05-21T12:16:48.617Z,90080
2018-05-21T12:17:48.625Z,90240
2018-05-21T12:18:48.635Z,93120
2018-05-21T12:19:48.370Z,95840
2018-05-21T12:20:48.111Z,96416
2018-05-21T12:21:48.653Z,95840
2018-05-21T12:22:48.862Z,91840
2018-05-21T12:23:48.404Z,85344
2018-05-21T12:24:48.402Z,80320
2018-05-21T12:25:49.126Z,79040
2018-05-21T12:26:48.427Z,80704
2018-05-21T12:27:48.527Z,84544
2018-05-21T12:28:49.266Z,90048
2018-05-21T12:29:48.447Z,95520
2018-05-21T12:30:48.449Z,99520
2018-05-21T12:31:49.088Z,100352
2018-05-21T12:32:48.761Z,100576
2018-05-21T12:33:48.738Z,95840
2018-05-21T12:34:49.006Z,88672
2018-05-21T12:35:49.055Z,80256
2018-05-21T12:36:48.764Z,73312
2018-05-21T12:37:48.775Z,70944
2018-05-21T12:38:48.773Z,73120
2018-05-21T12:39:48.817Z,75328
2018-05-21T12:40:48.806Z,79552
2018-05-21T12:41:48.532Z,84640
2018-05-21T12:42:48.276Z,88000
2018-05-21T12:43:49.075Z,90112
2018-05-21T12:44:48.839Z,90880
2018-05-21T12:45:48.836Z,88512
2018-05-21T12:46:48.907Z,86560
2018-05-21T12:47:49.123Z,84640
2018-05-21T12:48:48.584Z,82944
2018-05-21T12:49:48.862Z,81216
2018-05-21T12:50:49.136Z,80832
2018-05-21T12:51:48.883Z,78272
2018-05-21T12:52:48.352Z,81056
2018-05-21T12:53:49.184Z,84288
2018-05-21T12:54:49.486Z,87040
2018-05-21T12:55:48.645Z,89184
2018-05-21T12:56:48.656Z,89088
2018-05-21T12:57:49.201Z,82816
2018-05-21T12:58:49.210Z,75072
2018-05-21T12:59:48.941Z,67552
2018-05-21T13:00:48.952Z,63328
2018-05-21T13:01:48.945Z,64160
2018-05-21T13:02:48.970Z,70880
2018-05-21T13:03:48.714Z,77856
2018-05-21T13:04:48.716Z,83808
2018-05-21T13:05:48.992Z,88000
2018-05-21T13:06:48.732Z,90048
2018-05-21T13:07:49.266Z,89952
2018-05-21T13:08:49.012Z,87168
2018-05-21T13:09:48.752Z,83584
2018-05-21T13:10:48.756Z,82240
2018-05-21T13:11:49.307Z,82048
2018-05-21T13:12:48.777Z,83072
2018-05-21T13:13:48.779Z,82624
2018-05-21T13:14:48.793Z,81792
2018-05-21T13:15:49.065Z,78592
2018-05-21T13:16:48.809Z,73664
2018-05-21T13:17:49.348Z,68640
2018-05-21T13:18:48.830Z,64864
2018-05-21T13:19:49.090Z,62656
2018-05-21T13:20:49.099Z,62688
2018-05-21T13:21:49.111Z,66080
2018-05-21T13:22:49.129Z,67648
2018-05-21T13:23:49.123Z,71552
2018-05-21T13:24:49.132Z,75744
2018-05-21T13:25:48.877Z,80768
2018-05-21T13:26:49.149Z,84640
2018-05-21T13:27:48.920Z,88448
2018-05-21T13:28:49.435Z,89952
2018-05-21T13:29:49.171Z,91264
2018-05-21T13:30:49.173Z,92480